createdAt,value
2018-07-01T00:00:43.368Z,12.55
2018-07-01T00:01:43.395Z,12.52
2018-07-01T00:02:43.321Z,12.58
2018-07-01T00:03:43.299Z,12.53
2018-07-01T00:04:43.257Z,12.56
2018-07-01T00:05:43.243Z,12.53
2018-07-01T00:06:43.238Z,12.47
2018-07-01T00:07:43.819Z,12.48
2018-07-01T00:08:43.147Z,12.53
2018-07-01T00:09:43.117Z,12.48
2018-07-01T00:10:43.170Z,12.47
2018-07-01T00:11:43.061Z,12.53
2018-07-01T00:12:43.076Z,12.59
2018-07-01T00:13:43.051Z,12.63
2018-07-01T00:14:42.976Z,12.69
2018-07-01T00:15:42.954Z,12.69
2018-07-01T00:16:42.921Z,12.66
2018-07-01T00:17:42.891Z,12.69
2018-07-01T00:18:42.909Z,12.70
2018-07-01T00:19:42.841Z,12.69
2018-07-01T00:20:42.814Z,12.69
2018-07-01T00:21:42.784Z,12.71
2018-07-01T00:22:42.771Z,12.70
2018-07-01T00:23:42.766Z,12.70
2018-07-01T00:24:42.738Z,12.66
2018-07-01T00:25:42.690Z,12.71
2018-07-01T00:26:42.642Z,12.69
2018-07-01T00:27:42.610Z,12.71
2018-07-01T00:28:42.628Z,12.71
2018-07-01T00:29:42.606Z,12.70
2018-07-01T00:30:42.532Z,12.69
2018-07-01T00:31:42.499Z,12.71
2018-07-01T00:32:42.470Z,12.73
2018-07-01T00:33:42.440Z,12.73
2018-07-01T00:34:42.467Z,12.70
2018-07-01T00:35:42.382Z,12.66
2018-07-01T00:36:42.357Z,12.63
2018-07-01T00:37:42.329Z,12.71
2018-07-01T00:38:42.919Z,12.70
2018-07-01T00:39:42.326Z,12.71
2018-07-01T00:40:42.247Z,12.71
2018-07-01T00:41:42.217Z,12.73
2018-07-01T00:42:42.186Z,12.77
2018-07-01T00:43:42.159Z,12.71
2018-07-01T00:44:42.182Z,12.70
2018-07-01T00:45:42.102Z,12.69
2018-07-01T00:46:42.074Z,12.69
2018-07-01T00:47:42.088Z,12.70
2018-07-01T00:48:42.016Z,12.69
2018-07-01T00:49:41.992Z,12.53
2018-07-01T00:50:41.976Z,12.53
2018-07-01T00:51:41.934Z,12.58
2018-07-01T00:52:41.949Z,12.56
2018-07-01T00:53:41.883Z,12.47
2018-07-01T00:54:41.856Z,12.45
2018-07-01T00:55:41.866Z,12.45
2018-07-01T00:56:41.805Z,12.38
2018-07-01T00:57:42.489Z,12.34
2018-07-01T00:58:41.744Z,12.36
2018-07-01T00:59:41.708Z,12.34
2018-07-01T01:00:41.731Z,12.15
2018-07-01T01:01:42.438Z,12.19
2018-07-01T01:02:42.329Z,12.13
2018-07-01T01:03:41.603Z,12.15
2018-07-01T01:04:41.564Z,12.10
2018-07-01T01:05:41.581Z,12.13
2018-07-01T01:06:41.513Z,12.08
2018-07-01T01:07:41.480Z,12.04
2018-07-01T01:08:41.452Z,12.10
2018-07-01T01:09:41.433Z,12.08
2018-07-01T01:10:41.440Z,12.05
2018-07-01T01:11:41.368Z,12.13
2018-07-01T01:12:41.341Z,12.13
2018-07-01T01:13:41.928Z,12.11
2018-07-01T01:14:41.283Z,12.19
2018-07-01T01:15:41.321Z,12.15
2018-07-01T01:16:41.228Z,12.19
2018-07-01T01:17:41.197Z,12.13
2018-07-01T01:18:41.170Z,12.04
2018-07-01T01:19:41.144Z,12.11
2018-07-01T01:20:41.167Z,12.10
2018-07-01T01:21:41.083Z,12.13
2018-07-01T01:22:41.061Z,12.11
2018-07-01T01:23:41.028Z,12.16
2018-07-01T01:24:41.000Z,12.03
2018-07-01T01:25:41.009Z,12.13
2018-07-01T01:26:40.995Z,12.15
2018-07-01T01:27:40.918Z,12.20
2018-07-01T01:28:40.899Z,12.26
2018-07-01T01:29:40.860Z,12.13
2018-07-01T01:30:40.833Z,12.28
2018-07-01T01:31:40.839Z,12.36
2018-07-01T01:32:40.778Z,12.38
2018-07-01T01:33:40.745Z,12.25
2018-07-01T01:34:40.748Z,12.25
2018-07-01T01:35:40.696Z,12.23
2018-07-01T01:36:40.706Z,12.26
2018-07-01T01:37:40.630Z,12.22
2018-07-01T01:38:40.661Z,12.26
2018-07-01T01:39:40.573Z,12.19
2018-07-01T01:40:40.545Z,12.08
2018-07-01T01:41:40.562Z,12.15
2018-07-01T01:42:40.493Z,12.15
2018-07-01T01:43:40.460Z,12.11
2018-07-01T01:44:40.455Z,12.13
2018-07-01T01:45:40.440Z,12.11
2018-07-01T01:46:40.378Z,12.08
2018-07-01T01:47:40.411Z,11.97
2018-07-01T01:48:40.321Z,11.98
2018-07-01T01:49:40.292Z,11.91
2018-07-01T01:50:40.260Z,11.86
2018-07-01T01:51:40.233Z,11.82
2018-07-01T01:52:40.247Z,11.75
2018-07-01T01:53:40.179Z,11.79
2018-07-01T01:54:40.153Z,11.81
2018-07-01T01:55:40.118Z,11.79
2018-07-01T01:56:40.138Z,11.71
2018-07-01T01:57:40.063Z,11.79
2018-07-01T01:58:40.040Z,11.81
2018-07-01T01:59:40.007Z,11.78
2018-07-01T02:00:39.977Z,11.81
2018-07-01T02:01:40.001Z,11.76
2018-07-01T02:02:39.924Z,11.82
2018-07-01T02:03:40.435Z,11.89
2018-07-01T02:04:39.865Z,11.82
2018-07-01T02:05:39.840Z,11.81
2018-07-01T02:06:39.852Z,11.73
2018-07-01T02:07:40.430Z,11.71
2018-07-01T02:08:39.799Z,11.67
2018-07-01T02:09:39.980Z,11.61
2018-07-01T02:10:39.693Z,11.64
2018-07-01T02:11:39.667Z,11.66
2018-07-01T02:12:40.434Z,11.63
2018-07-01T02:13:39.759Z,11.63
2018-07-01T02:14:39.581Z,11.63
2018-07-01T02:15:39.553Z,11.57
2018-07-01T02:16:39.532Z,11.57
2018-07-01T02:17:39.492Z,11.57
2018-07-01T02:18:39.508Z,11.49
2018-07-01T02:19:39.435Z,11.46
2018-07-01T02:20:39.930Z,11.49
2018-07-01T02:21:39.375Z,11.39
2018-07-01T02:22:39.351Z,11.41
2018-07-01T02:23:39.498Z,11.33
2018-07-01T02:24:39.296Z,11.28
2018-07-01T02:25:39.261Z,11.28
2018-07-01T02:26:39.234Z,11.28
2018-07-01T02:27:39.936Z,11.34
2018-07-01T02:28:39.221Z,11.45
2018-07-01T02:29:39.148Z,11.46
2018-07-01T02:30:39.491Z,11.39
2018-07-01T02:31:39.089Z,11.38
2018-07-01T02:32:39.932Z,11.43
2018-07-01T02:33:39.032Z,11.39
2018-07-01T02:34:39.057Z,11.34
2018-07-01T02:35:38.974Z,11.31
2018-07-01T02:36:39.008Z,11.34
2018-07-01T02:37:38.921Z,11.28
2018-07-01T02:38:39.438Z,11.18
2018-07-01T02:39:38.862Z,11.20
2018-07-01T02:40:38.837Z,11.15
2018-07-01T02:41:38.846Z,11.13
2018-07-01T02:42:38.774Z,11.15
2018-07-01T02:43:38.754Z,11.16
2018-07-01T02:44:38.719Z,11.09
2018-07-01T02:45:38.732Z,11.08
2018-07-01T02:46:38.680Z,10.95
2018-07-01T02:47:39.453Z,10.90
2018-07-01T02:48:38.605Z,10.90
2018-07-01T02:49:38.572Z,10.84
2018-07-01T02:50:38.994Z,10.76
2018-07-01T02:51:38.514Z,10.66
2018-07-01T02:52:39.441Z,10.65
2018-07-01T02:53:38.501Z,10.58
2018-07-01T02:54:38.483Z,10.47
2018-07-01T02:55:38.948Z,10.46
2018-07-01T02:56:38.380Z,10.41
2018-07-01T02:57:38.344Z,10.44
2018-07-01T02:58:38.313Z,10.26
2018-07-01T02:59:38.513Z,10.38
2018-07-01T03:00:38.261Z,10.23
2018-07-01T03:01:38.241Z,10.17
2018-07-01T03:02:38.199Z,10.23
2018-07-01T03:03:38.943Z,10.21
2018-07-01T03:04:38.185Z,10.17
2018-07-01T03:05:38.968Z,10.05
2018-07-01T03:06:38.090Z,10.10
2018-07-01T03:07:38.057Z,10.05
2018-07-01T03:08:38.943Z,10.11
2018-07-01T03:09:38.060Z,9.98
2018-07-01T03:10:37.970Z,10.00
2018-07-01T03:11:37.973Z,9.99
2018-07-01T03:12:38.444Z,10.14
2018-07-01T03:13:37.933Z,10.15
2018-07-01T03:14:37.866Z,10.18
2018-07-01T03:15:37.824Z,10.17
2018-07-01T03:16:37.999Z,10.20
2018-07-01T03:17:37.764Z,10.15
2018-07-01T03:18:37.733Z,10.23
2018-07-01T03:19:37.748Z,10.18
2018-07-01T03:20:37.679Z,10.21
2018-07-01T03:21:37.644Z,10.18
2018-07-01T03:22:37.615Z,10.36
2018-07-01T03:23:38.000Z,10.35
2018-07-01T03:24:37.568Z,10.33
2018-07-01T03:25:37.529Z,10.35
2018-07-01T03:26:37.507Z,10.36
2018-07-01T03:27:37.515Z,10.49
2018-07-01T03:28:37.447Z,10.44
2018-07-01T03:29:37.413Z,10.54
2018-07-01T03:30:37.386Z,10.39
2018-07-01T03:31:38.350Z,10.54
2018-07-01T03:32:37.330Z,10.57
2018-07-01T03:33:37.941Z,10.57
2018-07-01T03:34:37.265Z,10.61
2018-07-01T03:35:37.238Z,10.51
2018-07-01T03:36:37.248Z,10.51
2018-07-01T03:37:37.497Z,10.59
2018-07-01T03:38:37.148Z,10.55
2018-07-01T03:39:37.119Z,10.59
2018-07-01T03:40:37.091Z,10.61
2018-07-01T03:41:38.002Z,10.65
2018-07-01T03:42:37.033Z,10.65
2018-07-01T03:43:37.084Z,10.75
2018-07-01T03:44:36.988Z,10.72
2018-07-01T03:45:37.443Z,10.63
2018-07-01T03:46:36.994Z,10.65
2018-07-01T03:47:36.888Z,10.77
2018-07-01T03:48:37.445Z,10.72
2018-07-01T03:49:36.830Z,10.85
2018-07-01T03:50:36.797Z,10.76
2018-07-01T03:51:36.815Z,10.79
2018-07-01T03:52:37.446Z,10.79
2018-07-01T03:53:36.708Z,10.79
2018-07-01T03:54:36.695Z,10.80
2018-07-01T03:55:36.651Z,10.88
2018-07-01T03:56:36.666Z,10.88
2018-07-01T03:57:36.661Z,10.91
2018-07-01T03:58:36.565Z,10.85
2018-07-01T03:59:37.450Z,10.84
2018-07-01T04:00:36.583Z,10.85
2018-07-01T04:01:36.480Z,10.87
2018-07-01T04:02:36.448Z,10.83
2018-07-01T04:03:36.451Z,10.91
2018-07-01T04:04:36.394Z,10.85
2018-07-01T04:05:36.361Z,10.85
2018-07-01T04:06:36.945Z,10.87
2018-07-01T04:07:36.325Z,10.88
2018-07-01T04:08:36.279Z,10.88
2018-07-01T04:09:36.243Z,10.97
2018-07-01T04:10:36.952Z,10.90
2018-07-01T04:11:36.191Z,10.95
2018-07-01T04:12:36.478Z,10.95
2018-07-01T04:13:36.126Z,10.95
2018-07-01T04:14:36.108Z,10.95
2018-07-01T04:15:36.955Z,11.02
2018-07-01T04:16:36.044Z,10.92
2018-07-01T04:17:36.055Z,10.97
2018-07-01T04:18:36.519Z,10.97
2018-07-01T04:19:35.956Z,10.97
2018-07-01T04:20:35.924Z,11.35
2018-07-01T04:21:36.455Z,11.81
2018-07-01T04:22:35.867Z,12.29
2018-07-01T04:23:35.895Z,12.41
2018-07-01T04:24:35.858Z,12.41
2018-07-01T04:25:36.451Z,12.38
2018-07-01T04:26:35.753Z,12.33
2018-07-01T04:27:35.725Z,12.23
2018-07-01T04:28:36.459Z,12.25
2018-07-01T04:29:35.707Z,12.25
2018-07-01T04:30:35.684Z,12.38
2018-07-01T04:31:36.448Z,12.38
2018-07-01T04:32:35.580Z,12.41
2018-07-01T04:33:35.552Z,12.44
2018-07-01T04:34:35.567Z,12.26
2018-07-01T04:35:36.458Z,12.16
2018-07-01T04:36:35.469Z,12.15
2018-07-01T04:37:35.439Z,12.18
2018-07-01T04:38:35.408Z,12.10
2018-07-01T04:39:35.423Z,12.08
2018-07-01T04:40:35.955Z,12.07
2018-07-01T04:41:35.327Z,12.08
2018-07-01T04:42:35.295Z,12.07
2018-07-01T04:43:35.269Z,12.08
2018-07-01T04:44:35.290Z,12.10
2018-07-01T04:45:35.263Z,12.08
2018-07-01T04:46:35.181Z,12.10
2018-07-01T04:47:35.161Z,12.08
2018-07-01T04:48:35.125Z,12.23
2018-07-01T04:49:35.100Z,12.19
2018-07-01T04:50:35.508Z,12.19
2018-07-01T04:51:35.053Z,12.29
2018-07-01T04:52:35.013Z,12.31
2018-07-01T04:53:34.994Z,12.37
2018-07-01T04:54:35.954Z,12.43
2018-07-01T04:55:34.974Z,12.53
2018-07-01T04:56:34.944Z,12.51
2018-07-01T04:57:34.874Z,12.58
2018-07-01T04:58:34.845Z,12.65
2018-07-01T04:59:34.817Z,12.69
2018-07-01T05:00:34.843Z,12.73
2018-07-01T05:01:34.766Z,12.91
2018-07-01T05:02:34.820Z,12.98
2018-07-01T05:03:34.706Z,13.25
2018-07-01T05:04:35.459Z,13.69
2018-07-01T05:05:34.698Z,13.91
2018-07-01T05:06:34.687Z,14.01
2018-07-01T05:07:35.455Z,14.21
2018-07-01T05:08:34.629Z,14.31
2018-07-01T05:09:34.541Z,14.38
2018-07-01T05:10:36.365Z,14.33
2018-07-01T05:11:34.554Z,14.45
2018-07-01T05:12:34.470Z,14.67
2018-07-01T05:13:34.984Z,14.75
2018-07-01T05:14:34.409Z,14.97
2018-07-01T05:15:34.379Z,14.93
2018-07-01T05:16:34.404Z,14.86
2018-07-01T05:17:34.376Z,14.87
2018-07-01T05:18:34.302Z,14.86
2018-07-01T05:19:34.965Z,14.75
2018-07-01T05:20:34.254Z,14.79
2018-07-01T05:21:34.958Z,14.79
2018-07-01T05:22:34.224Z,14.71
2018-07-01T05:23:34.491Z,14.79
2018-07-01T05:24:34.151Z,14.74
2018-07-01T05:25:34.130Z,14.77
2018-07-01T05:26:34.960Z,14.74
2018-07-01T05:27:34.146Z,14.77
2018-07-01T05:28:34.116Z,14.70
2018-07-01T05:29:34.965Z,14.77
2018-07-01T05:30:34.006Z,14.75
2018-07-01T05:31:33.978Z,14.85
2018-07-01T05:32:34.460Z,14.87
2018-07-01T05:33:33.982Z,14.85
2018-07-01T05:34:33.950Z,14.93
2018-07-01T05:35:34.473Z,14.90
2018-07-01T05:36:33.855Z,14.94
2018-07-01T05:37:33.827Z,14.97
2018-07-01T05:38:34.469Z,14.97
2018-07-01T05:39:33.828Z,14.95
2018-07-01T05:40:34.370Z,14.98
2018-07-01T05:41:34.462Z,14.87
2018-07-01T05:42:33.701Z,14.94
2018-07-01T05:43:34.469Z,14.93
2018-07-01T05:44:33.691Z,15.01
2018-07-01T05:45:33.669Z,15.01
2018-07-01T05:46:33.594Z,15.02
2018-07-01T05:47:34.462Z,15.00
2018-07-01T05:48:33.538Z,15.15
2018-07-01T05:49:33.509Z,15.18
2018-07-01T05:50:33.546Z,15.18
2018-07-01T05:51:33.457Z,15.18
2018-07-01T05:52:33.433Z,15.27
2018-07-01T05:53:33.401Z,15.23
2018-07-01T05:54:33.417Z,15.22
2018-07-01T05:55:33.966Z,15.30
2018-07-01T05:56:33.328Z,15.37
2018-07-01T05:57:33.346Z,15.26
2018-07-01T05:58:33.969Z,15.37
2018-07-01T05:59:33.306Z,15.35
2018-07-01T06:00:33.218Z,15.40
2018-07-01T06:01:33.196Z,15.35
2018-07-01T06:02:33.170Z,15.43
2018-07-01T06:03:33.152Z,15.51
2018-07-01T06:04:33.161Z,15.47
2018-07-01T06:05:33.992Z,15.55
2018-07-01T06:06:33.065Z,15.59
2018-07-01T06:07:33.076Z,15.56
2018-07-01T06:08:33.052Z,15.65
2018-07-01T06:09:32.985Z,15.63
2018-07-01T06:10:32.961Z,15.63
2018-07-01T06:11:32.976Z,15.63
2018-07-01T06:12:32.905Z,15.65
2018-07-01T06:13:32.879Z,15.73
2018-07-01T06:14:32.859Z,15.71
2018-07-01T06:15:32.826Z,15.74
2018-07-01T06:16:32.956Z,15.80
2018-07-01T06:17:32.841Z,15.78
2018-07-01T06:18:32.762Z,15.88
2018-07-01T06:19:32.725Z,15.80
2018-07-01T06:20:32.702Z,15.89
2018-07-01T06:21:32.673Z,15.96
2018-07-01T06:22:32.703Z,15.96
2018-07-01T06:23:32.622Z,15.93
2018-07-01T06:24:32.700Z,16.00
2018-07-01T06:25:32.569Z,15.95
2018-07-01T06:26:32.537Z,16.00
2018-07-01T06:27:32.512Z,16.02
2018-07-01T06:28:32.486Z,16.08
2018-07-01T06:29:32.514Z,16.11
2018-07-01T06:30:32.435Z,16.10
2018-07-01T06:31:32.411Z,16.07
2018-07-01T06:32:32.389Z,16.16
2018-07-01T06:33:32.354Z,16.16
2018-07-01T06:34:32.385Z,16.17
2018-07-01T06:35:32.305Z,16.14
2018-07-01T06:36:32.278Z,16.25
2018-07-01T06:37:32.252Z,16.21
2018-07-01T06:38:32.239Z,16.33
2018-07-01T06:39:32.259Z,16.37
2018-07-01T06:40:32.178Z,16.30
2018-07-01T06:41:32.152Z,16.44
2018-07-01T06:42:32.137Z,16.40
2018-07-01T06:43:32.099Z,16.42
2018-07-01T06:44:32.544Z,16.48
2018-07-01T06:45:32.065Z,16.51
2018-07-01T06:46:32.018Z,16.54
2018-07-01T06:47:31.996Z,16.57
2018-07-01T06:48:31.965Z,16.57
2018-07-01T06:49:32.097Z,16.63
2018-07-01T06:50:31.913Z,16.67
2018-07-01T06:51:31.889Z,16.67
2018-07-01T06:52:31.866Z,16.67
2018-07-01T06:53:31.838Z,16.69
2018-07-01T06:54:32.154Z,16.65
2018-07-01T06:55:31.787Z,16.74
2018-07-01T06:56:31.796Z,16.85
2018-07-01T06:57:31.739Z,16.74
2018-07-01T06:58:31.728Z,16.69
2018-07-01T06:59:32.035Z,16.77
2018-07-01T07:00:31.660Z,16.87
2018-07-01T07:01:31.636Z,16.85
2018-07-01T07:02:31.713Z,16.81
2018-07-01T07:03:31.578Z,16.90
2018-07-01T07:04:32.483Z,16.92
2018-07-01T07:05:31.530Z,16.99
2018-07-01T07:06:31.510Z,17.02
2018-07-01T07:07:31.524Z,17.07
2018-07-01T07:08:31.459Z,17.09
2018-07-01T07:09:31.537Z,17.12
2018-07-01T07:10:31.437Z,17.09
2018-07-01T07:11:31.406Z,17.07
2018-07-01T07:12:31.359Z,17.15
2018-07-01T07:13:31.328Z,17.22
2018-07-01T07:14:31.533Z,17.27
2018-07-01T07:15:31.277Z,17.27
2018-07-01T07:16:31.292Z,17.31
2018-07-01T07:17:31.225Z,17.28
2018-07-01T07:18:31.196Z,17.38
2018-07-01T07:19:31.981Z,17.49
2018-07-01T07:20:31.148Z,17.47
2018-07-01T07:21:31.182Z,17.40
2018-07-01T07:22:31.134Z,17.47
2018-07-01T07:23:31.082Z,17.49
2018-07-01T07:24:31.060Z,17.52
2018-07-01T07:25:31.076Z,17.49
2018-07-01T07:26:30.998Z,17.50
2018-07-01T07:27:31.053Z,17.63
2018-07-01T07:28:30.947Z,17.79
2018-07-01T07:29:30.920Z,17.80
2018-07-01T07:30:30.898Z,17.81
2018-07-01T07:31:30.876Z,17.79
2018-07-01T07:32:30.890Z,17.83
2018-07-01T07:33:30.819Z,17.87
2018-07-01T07:34:30.794Z,17.88
2018-07-01T07:35:30.816Z,17.96
2018-07-01T07:36:30.792Z,18.01
2018-07-01T07:37:30.779Z,18.17
2018-07-01T07:38:30.696Z,18.27
2018-07-01T07:39:30.670Z,18.31
2018-07-01T07:40:30.647Z,18.42
2018-07-01T07:41:30.623Z,18.45
2018-07-01T07:42:31.046Z,18.56
2018-07-01T07:43:30.583Z,18.63
2018-07-01T07:44:30.603Z,18.66
2018-07-01T07:45:30.524Z,18.74
2018-07-01T07:46:30.506Z,18.81
2018-07-01T07:47:30.474Z,18.81
2018-07-01T07:48:30.456Z,18.79
2018-07-01T07:49:30.481Z,18.78
2018-07-01T07:50:30.406Z,18.86
2018-07-01T07:51:30.407Z,18.87
2018-07-01T07:52:30.360Z,18.82
2018-07-01T07:53:30.331Z,18.81
2018-07-01T07:54:30.360Z,18.72
2018-07-01T07:55:30.331Z,18.78
2018-07-01T07:56:30.271Z,18.97
2018-07-01T07:57:30.282Z,18.91
2018-07-01T07:58:30.217Z,19.06
2018-07-01T07:59:30.190Z,19.00
2018-07-01T08:00:30.166Z,19.12
2018-07-01T08:01:30.146Z,19.24
2018-07-01T08:02:30.161Z,19.27
2018-07-01T08:03:30.091Z,19.37
2018-07-01T08:04:30.080Z,19.43
2018-07-01T08:05:30.052Z,19.42
2018-07-01T08:06:30.029Z,19.47
2018-07-01T08:07:30.096Z,19.42
2018-07-01T08:08:30.022Z,19.35
2018-07-01T08:09:29.953Z,19.40
2018-07-01T08:10:29.933Z,19.46
2018-07-01T08:11:29.915Z,19.38
2018-07-01T08:12:29.888Z,19.40
2018-07-01T08:13:29.924Z,19.38
2018-07-01T08:14:29.841Z,19.52
2018-07-01T08:15:29.834Z,19.52
2018-07-01T08:16:29.802Z,19.46
2018-07-01T08:17:29.808Z,19.34
2018-07-01T08:18:29.798Z,19.35
2018-07-01T08:19:30.510Z,19.31
2018-07-01T08:20:29.735Z,19.31
2018-07-01T08:21:30.501Z,19.37
2018-07-01T08:22:29.655Z,19.40
2018-07-01T08:23:29.686Z,19.46
2018-07-01T08:24:29.655Z,19.52
2018-07-01T08:25:29.596Z,19.50
2018-07-01T08:26:29.560Z,19.46
2018-07-01T08:27:29.564Z,19.57
2018-07-01T08:28:29.526Z,19.57
2018-07-01T08:29:29.548Z,19.75
2018-07-01T08:30:29.476Z,19.65
2018-07-01T08:31:30.004Z,19.43
2018-07-01T08:32:29.440Z,19.42
2018-07-01T08:33:29.405Z,19.40
2018-07-01T08:34:29.451Z,19.40
2018-07-01T08:35:30.001Z,19.57
2018-07-01T08:36:29.376Z,19.83
2018-07-01T08:37:29.319Z,20.00
2018-07-01T08:38:29.289Z,20.08
2018-07-01T08:39:29.305Z,20.22
2018-07-01T08:40:30.007Z,20.26
2018-07-01T08:41:29.285Z,20.30
2018-07-01T08:42:29.215Z,20.34
2018-07-01T08:43:29.229Z,20.26
2018-07-01T08:44:29.170Z,20.29
2018-07-01T08:45:29.127Z,20.22
2018-07-01T08:46:29.148Z,20.20
2018-07-01T08:47:29.087Z,20.27
2018-07-01T08:48:29.061Z,20.26
2018-07-01T08:49:29.042Z,20.32
2018-07-01T08:50:29.069Z,20.32
2018-07-01T08:51:29.010Z,20.35
2018-07-01T08:52:29.019Z,20.35
2018-07-01T08:53:29.030Z,20.26
2018-07-01T08:54:29.912Z,20.08
2018-07-01T08:55:28.953Z,20.10
2018-07-01T08:56:28.883Z,20.15
2018-07-01T08:57:28.860Z,19.93
2018-07-01T08:58:28.846Z,19.93
2018-07-01T08:59:28.875Z,19.97
2018-07-01T09:00:28.844Z,19.83
2018-07-01T09:01:28.779Z,19.61
2018-07-01T09:02:28.750Z,19.67
2018-07-01T09:03:28.743Z,19.67
2018-07-01T09:04:28.759Z,19.67
2018-07-01T09:05:28.687Z,19.82
2018-07-01T09:06:28.715Z,19.87
2018-07-01T09:07:28.641Z,19.98
2018-07-01T09:08:28.678Z,19.98
2018-07-01T09:09:28.635Z,20.01
2018-07-01T09:10:28.581Z,19.95
2018-07-01T09:11:28.590Z,19.83
2018-07-01T09:12:28.618Z,19.74
2018-07-01T09:13:28.500Z,19.64
2018-07-01T09:14:28.480Z,19.63
2018-07-01T09:15:28.505Z,19.56
2018-07-01T09:16:28.486Z,19.55
2018-07-01T09:17:28.420Z,19.37
2018-07-01T09:18:28.388Z,19.35
2018-07-01T09:19:28.411Z,19.25
2018-07-01T09:20:28.346Z,19.24
2018-07-01T09:21:28.366Z,19.34
2018-07-01T09:22:28.920Z,19.32
2018-07-01T09:23:28.311Z,19.31
2018-07-01T09:24:28.265Z,19.25
2018-07-01T09:25:28.225Z,19.15
2018-07-01T09:26:28.252Z,19.07
2018-07-01T09:27:28.187Z,19.05
2018-07-01T09:28:28.202Z,19.06
2018-07-01T09:29:29.019Z,19.09
2018-07-01T09:30:28.112Z,19.17
2018-07-01T09:31:28.093Z,19.28
2018-07-01T09:32:28.572Z,19.32
2018-07-01T09:33:28.039Z,19.45
2018-07-01T09:34:28.040Z,19.52
2018-07-01T09:35:28.524Z,19.63
2018-07-01T09:36:27.967Z,19.71
2018-07-01T09:37:27.992Z,19.75
2018-07-01T09:38:27.922Z,19.64
2018-07-01T09:39:27.906Z,19.78
2018-07-01T09:40:28.096Z,19.83
2018-07-01T09:41:27.868Z,20.01
2018-07-01T09:42:27.860Z,20.05
2018-07-01T09:43:27.832Z,20.01
2018-07-01T09:44:27.785Z,19.97
2018-07-01T09:45:27.797Z,20.00
2018-07-01T09:46:27.792Z,20.16
2018-07-01T09:47:27.711Z,20.23
2018-07-01T09:48:27.760Z,20.35
2018-07-01T09:49:27.673Z,20.48
2018-07-01T09:50:27.711Z,20.51
2018-07-01T09:51:27.621Z,20.56
2018-07-01T09:52:27.598Z,20.66
2018-07-01T09:53:27.635Z,20.85
2018-07-01T09:54:27.563Z,20.93
2018-07-01T09:55:27.525Z,20.88
2018-07-01T09:56:27.513Z,21.04
2018-07-01T09:57:28.021Z,21.21
2018-07-01T09:58:27.503Z,21.33
2018-07-01T09:59:27.443Z,21.38
2018-07-01T10:00:27.418Z,21.43
2018-07-01T10:01:27.430Z,21.51
2018-07-01T10:02:27.375Z,21.51
2018-07-01T10:03:27.403Z,21.38
2018-07-01T10:04:28.027Z,21.30
2018-07-01T10:05:27.308Z,21.52
2018-07-01T10:06:27.336Z,21.71
2018-07-01T10:07:27.270Z,21.89
2018-07-01T10:08:27.265Z,22.05
2018-07-01T10:09:27.253Z,22.16
2018-07-01T10:10:27.205Z,22.07
2018-07-01T10:11:27.258Z,22.02
2018-07-01T10:12:27.171Z,22.12
2018-07-01T10:13:27.142Z,22.24
2018-07-01T10:14:27.162Z,22.33
2018-07-01T10:15:27.099Z,22.42
2018-07-01T10:16:27.103Z,22.18
2018-07-01T10:17:27.058Z,22.20
2018-07-01T10:18:27.091Z,22.08
2018-07-01T10:19:27.049Z,22.09
2018-07-01T10:20:27.012Z,22.09
2018-07-01T10:21:27.048Z,22.02
2018-07-01T10:22:26.977Z,22.09
2018-07-01T10:23:26.975Z,22.12
2018-07-01T10:24:26.920Z,22.23
2018-07-01T10:25:26.931Z,22.36
2018-07-01T10:26:26.970Z,22.36
2018-07-01T10:27:26.845Z,22.27
2018-07-01T10:28:26.866Z,22.29
2018-07-01T10:29:26.859Z,22.11
2018-07-01T10:30:26.786Z,22.26
2018-07-01T10:31:26.780Z,22.08
2018-07-01T10:32:27.455Z,21.85
2018-07-01T10:33:26.725Z,21.86
2018-07-01T10:34:27.172Z,21.90
2018-07-01T10:35:26.682Z,21.96
2018-07-01T10:36:26.666Z,21.90
2018-07-01T10:37:26.649Z,21.67
2018-07-01T10:38:26.629Z,21.62
2018-07-01T10:39:26.647Z,21.61
2018-07-01T10:40:26.586Z,21.52
2018-07-01T10:41:26.556Z,21.37
2018-07-01T10:42:26.540Z,21.45
2018-07-01T10:43:26.536Z,21.33
2018-07-01T10:44:26.639Z,21.19
2018-07-01T10:45:26.474Z,21.16
2018-07-01T10:46:26.452Z,21.11
2018-07-01T10:47:26.438Z,20.97
2018-07-01T10:48:26.413Z,20.85
2018-07-01T10:49:26.435Z,20.81
2018-07-01T10:50:26.369Z,20.71
2018-07-01T10:51:27.106Z,20.75
2018-07-01T10:52:26.334Z,20.75
2018-07-01T10:53:26.346Z,20.67
2018-07-01T10:54:26.279Z,20.44
2018-07-01T10:55:26.261Z,20.37
2018-07-01T10:56:26.299Z,20.34
2018-07-01T10:57:26.217Z,20.26
2018-07-01T10:58:26.193Z,20.46
2018-07-01T10:59:26.175Z,20.54
2018-07-01T11:00:26.149Z,20.64
2018-07-01T11:01:26.185Z,20.64
2018-07-01T11:02:26.105Z,20.60
2018-07-01T11:03:26.083Z,20.54
2018-07-01T11:04:26.060Z,20.67
2018-07-01T11:05:26.043Z,20.58
2018-07-01T11:06:26.110Z,20.49
2018-07-01T11:07:25.998Z,20.44
2018-07-01T11:08:25.969Z,20.41
2018-07-01T11:09:25.949Z,20.29
2018-07-01T11:10:25.929Z,20.32
2018-07-01T11:11:26.098Z,20.34
2018-07-01T11:12:25.925Z,20.23
2018-07-01T11:13:25.854Z,20.32
2018-07-01T11:14:25.838Z,20.30
2018-07-01T11:15:25.810Z,20.48
2018-07-01T11:16:26.542Z,20.53
2018-07-01T11:17:25.788Z,20.49
2018-07-01T11:18:25.984Z,20.66
2018-07-01T11:19:25.723Z,20.71
2018-07-01T11:20:25.852Z,20.86
2018-07-01T11:21:26.547Z,20.96
2018-07-01T11:22:25.677Z,21.00
2018-07-01T11:23:25.630Z,21.11
2018-07-01T11:24:25.615Z,21.37
2018-07-01T11:25:25.584Z,21.46
2018-07-01T11:26:26.552Z,21.58
2018-07-01T11:27:25.605Z,21.76
2018-07-01T11:28:25.526Z,21.74
2018-07-01T11:29:25.516Z,21.89
2018-07-01T11:30:25.476Z,21.94
2018-07-01T11:31:25.454Z,21.94
2018-07-01T11:32:25.481Z,21.90
2018-07-01T11:33:25.407Z,21.96
2018-07-01T11:34:25.391Z,21.92
2018-07-01T11:35:25.377Z,22.00
2018-07-01T11:36:25.340Z,22.04
2018-07-01T11:37:25.369Z,22.18
2018-07-01T11:38:25.307Z,22.29
2018-07-01T11:39:25.298Z,22.39
2018-07-01T11:40:25.261Z,22.39
2018-07-01T11:41:25.237Z,22.57
2018-07-01T11:42:25.273Z,22.51
2018-07-01T11:43:25.202Z,22.48
2018-07-01T11:44:25.192Z,22.42
2018-07-01T11:45:25.152Z,22.41
2018-07-01T11:46:25.131Z,22.41
2018-07-01T11:47:25.163Z,22.42
2018-07-01T11:48:25.131Z,22.16
2018-07-01T11:49:25.068Z,22.05
2018-07-01T11:50:25.048Z,21.82
2018-07-01T11:51:25.085Z,21.66
2018-07-01T11:52:25.089Z,21.77
2018-07-01T11:53:25.006Z,21.89
2018-07-01T11:54:25.012Z,22.02
2018-07-01T11:55:24.948Z,22.04
2018-07-01T11:56:25.466Z,21.99
2018-07-01T11:57:25.021Z,22.02
2018-07-01T11:58:24.875Z,22.00
2018-07-01T11:59:24.914Z,21.86
2018-07-01T12:00:24.841Z,21.83
2018-07-01T12:01:24.820Z,21.82
2018-07-01T12:02:24.866Z,21.76
2018-07-01T12:03:24.786Z,21.76
2018-07-01T12:04:24.809Z,21.92
2018-07-01T12:05:24.778Z,21.93
2018-07-01T12:06:24.720Z,22.00
2018-07-01T12:07:24.684Z,22.08
2018-07-01T12:08:24.670Z,22.05
2018-07-01T12:09:24.691Z,21.96
2018-07-01T12:10:24.682Z,22.08
2018-07-01T12:11:24.626Z,22.04
2018-07-01T12:12:24.588Z,21.93
2018-07-01T12:13:24.564Z,21.90
2018-07-01T12:14:24.550Z,22.04
2018-07-01T12:15:24.582Z,22.07
2018-07-01T12:16:24.544Z,21.99
2018-07-01T12:17:24.470Z,22.12
2018-07-01T12:18:24.454Z,22.26
2018-07-01T12:19:24.535Z,22.39
2018-07-01T12:20:24.412Z,22.51
2018-07-01T12:21:24.441Z,22.49
2018-07-01T12:22:24.382Z,22.69
2018-07-01T12:23:24.464Z,22.78
2018-07-01T12:24:24.337Z,22.79
2018-07-01T12:25:24.306Z,22.79
2018-07-01T12:26:24.324Z,22.71
2018-07-01T12:27:24.263Z,22.60
2018-07-01T12:28:24.286Z,22.51
2018-07-01T12:29:24.245Z,22.31
2018-07-01T12:30:24.268Z,22.30
2018-07-01T12:31:24.182Z,22.34
2018-07-01T12:32:24.218Z,22.44
2018-07-01T12:33:24.227Z,22.49
2018-07-01T12:34:24.123Z,22.69
2018-07-01T12:35:24.098Z,22.66
2018-07-01T12:36:24.089Z,22.86
2018-07-01T12:37:24.122Z,22.85
2018-07-01T12:38:24.293Z,22.75
2018-07-01T12:39:24.009Z,22.78
2018-07-01T12:40:23.997Z,22.67
2018-07-01T12:41:23.969Z,22.76
2018-07-01T12:42:24.009Z,22.73
2018-07-01T12:43:23.938Z,22.75
2018-07-01T12:44:23.915Z,22.63
2018-07-01T12:45:24.584Z,22.48
2018-07-01T12:46:23.891Z,22.31
2018-07-01T12:47:23.901Z,22.33
2018-07-01T12:48:23.839Z,22.18
2018-07-01T12:49:23.807Z,22.14
2018-07-01T12:50:24.178Z,22.29
2018-07-01T12:51:23.768Z,22.33
2018-07-01T12:52:23.746Z,22.26